Time;durP1;ratioP1;P1;durP2;ratioP2;P2;SDS_P1;SDS_P2;PMS_P1;PMS_P2;Temp;Humidity;BMP_temperature;BMP_pressure;BME280_temperature;BME280_humidity;BME280_pressure;Samples;Min_cycle;Max_cycle;Signal;HPM_P1;HPM_P2
2023/07/13 00:00:15;;;;;;;10.05;2.22;;;;;;;15.68;70.63;101350.03;5058339;28;20033;-51
2023/07/13 00:02:41;;;;;;;;;;;;;;;15.79;68.46;101357.97;5062240;28;20032;-52
2023/07/13 00:05:07;;;;;;;6.97;2.40;;;;;;;15.63;71.07;101355.78;5058086;28;19913;-53
2023/07/13 00:07:32;;;;;;;5.80;1.70;;;;;;;15.61;70.76;101360.44;5058865;28;20104;-52
2023/07/13 00:09:59;;;;;;;6.05;2.03;;;;;;;15.57;71.54;101360.84;5056506;28;20470;-52
2023/07/13 00:12:36;;;;;;;6.30;2.25;;;;;;;15.56;72.01;101359.16;5058653;28;20020;-52
2023/07/13 00:15:23;;;;;;;6.90;1.98;;;;;;;15.57;70.75;101352.81;5059896;28;20047;-50
2023/07/13 00:17:53;;;;;;;6.40;2.03;;;;;;;15.53;71.90;101347.72;5059983;28;20459;-50
2023/07/13 00:20:24;;;;;;;9.15;1.77;;;;;;;15.54;72.15;101344.06;5061316;28;20382;-50
2023/07/13 00:22:53;;;;;;;5.65;1.70;;;;;;;15.49;72.53;101350.84;5056856;28;20029;-50
2023/07/13 00:25:19;;;;;;;7.00;1.95;;;;;;;15.45;72.30;101349.41;5061906;28;20039;-50
2023/07/13 00:27:48;;;;;;;8.27;2.28;;;;;;;15.43;73.17;101354.06;5056752;28;20033;-51
2023/07/13 00:30:15;;;;;;;7.45;2.05;;;;;;;15.44;72.87;101353.09;5061391;28;20428;-50
2023/07/13 00:32:40;;;;;;;9.00;2.10;;;;;;;15.35;74.00;101347.56;5058265;28;20080;-50
2023/07/13 00:35:07;;;;;;;7.75;2.28;;;;;;;15.34;73.45;101355.72;5060886;28;20113;-50
2023/07/13 00:37:34;;;;;;;5.85;2.28;;;;;;;15.32;73.68;101358.53;5056598;28;20031;-49
2023/07/13 00:39:59;;;;;;;7.03;2.10;;;;;;;15.29;74.57;101366.00;5061819;28;20059;-49
2023/07/13 00:42:24;;;;;;;7.93;2.08;;;;;;;15.29;74.66;101357.97;5058675;28;20463;-50
2023/07/13 00:45:05;;;;;;;6.22;2.10;;;;;;;15.27;74.04;101362.59;5055100;28;20029;-50
2023/07/13 00:47:30;;;;;;;6.82;2.30;;;;;;;15.25;74.70;101361.88;5059902;28;20032;-50
2023/07/13 00:49:55;;;;;;;7.43;2.67;;;;;;;15.23;75.19;101370.03;5060165;28;20367;-49
2023/07/13 00:52:21;;;;;;;4.70;1.88;;;;;;;15.22;75.22;101373.72;5058319;28;20036;-51
2023/07/13 00:54:47;;;;;;;7.97;1.95;;;;;;;15.20;75.29;101361.44;5056692;28;20020;-50
2023/07/13 00:57:18;;;;;;;9.40;1.98;;;;;;;15.19;75.65;101363.28;5059548;28;20481;-51
2023/07/13 00:59:48;;;;;;;8.68;2.70;;;;;;;15.17;75.76;101357.19;5056524;28;20025;-51
2023/07/13 01:02:14;;;;;;;6.38;1.90;;;;;;;15.12;75.77;101354.06;5056884;28;20028;-52
2023/07/13 01:04:39;;;;;;;4.50;1.80;;;;;;;15.15;75.96;101359.16;5059896;28;20031;-50
2023/07/13 01:07:06;;;;;;;6.93;2.15;;;;;;;15.12;76.06;101365.66;5057624;28;20508;-51
2023/07/13 01:09:32;;;;;;;5.97;2.00;;;;;;;15.11;76.44;101360.44;5055384;28;20424;-50
2023/07/13 01:11:59;;;;;;;6.72;2.28;;;;;;;15.10;76.92;101356.88;5060225;28;20445;-51
2023/07/13 01:14:24;;;;;;;5.22;2.08;;;;;;;15.06;76.25;101349.28;5060290;28;20035;-50
2023/07/13 01:16:50;;;;;;;9.55;2.40;;;;;;;15.03;77.42;101361.09;5056379;28;20029;-50
2023/07/13 01:19:25;;;;;;;4.10;1.90;;;;;;;15.03;77.37;101365.59;5059396;28;20482;-50
2023/07/13 01:21:52;;;;;;;5.88;1.90;;;;;;;15.00;77.38;101364.03;5058379;28;20116;-50
2023/07/13 01:24:17;;;;;;;7.65;2.20;;;;;;;14.99;77.69;101368.53;5063056;28;20120;-50
2023/07/13 01:26:43;;;;;;;8.15;2.35;;;;;;;15.00;77.95;101369.38;5059750;28;20056;-50
2023/07/13 01:29:08;;;;;;;12.85;2.17;;;;;;;14.99;77.88;101371.22;5057746;28;20040;-50
2023/07/13 01:31:33;;;;;;;6.32;2.00;;;;;;;15.01;77.77;101373.75;5059710;28;20060;-50
2023/07/13 01:33:59;;;;;;;5.40;1.90;;;;;;;14.99;77.81;101375.72;5062896;28;20667;-50
2023/07/13 01:36:25;;;;;;;6.38;2.17;;;;;;;14.97;78.55;101370.50;5063372;28;20037;-50
2023/07/13 01:38:50;;;;;;;6.20;2.08;;;;;;;14.97;77.93;101372.31;5062943;28;20024;-50
2023/07/13 01:41:16;;;;;;;9.18;2.17;;;;;;;14.99;78.21;101375.72;5061295;28;20071;-50
2023/07/13 01:43:41;;;;;;;6.10;2.10;;;;;;;14.97;79.32;101377.66;5061739;28;20052;-50
2023/07/13 01:46:06;;;;;;;10.27;2.53;;;;;;;14.95;78.40;101379.63;5062989;28;20056;-50
2023/07/13 01:48:32;;;;;;;7.93;2.40;;;;;;;14.98;78.40;101379.38;5061547;28;20032;-50
2023/07/13 01:50:57;;;;;;;8.80;2.50;;;;;;;14.92;78.76;101377.22;5060571;28;20535;-50
2023/07/13 01:53:22;;;;;;;9.27;2.63;;;;;;;14.91;79.87;101384.41;5063700;28;20029;-49
2023/07/13 01:55:48;;;;;;;6.60;2.17;;;;;;;14.92;79.52;101382.56;5060380;28;20035;-50
2023/07/13 01:58:13;;;;;;;6.60;2.10;;;;;;;14.89;79.53;101381.03;5062455;28;20500;-49
2023/07/13 02:00:39;;;;;;;8.30;2.33;;;;;;;14.89;79.49;101375.69;5060626;28;20060;-50
2023/07/13 02:03:04;;;;;;;8.82;2.40;;;;;;;14.89;79.31;101386.38;5061747;28;20409;-49
2023/07/13 02:05:30;;;;;;;4.28;2.33;;;;;;;14.83;80.20;101375.34;5059524;28;20067;-49
2023/07/13 02:07:55;;;;;;;7.50;2.53;;;;;;;14.84;79.88;101387.72;5067758;28;20299;-50
2023/07/13 02:10:20;;;;;;;9.60;2.80;;;;;;;14.80;80.52;101387.16;5062395;28;20035;-49
2023/07/13 02:12:48;;;;;;;7.32;2.63;;;;;;;14.79;80.60;101390.81;5060965;28;20025;-50
2023/07/13 02:15:13;;;;;;;9.15;3.05;;;;;;;14.78;80.69;101389.94;5065124;28;20028;-50
2023/07/13 02:17:39;;;;;;;6.70;2.45;;;;;;;14.80;80.62;101388.03;5061511;28;20029;-50
2023/07/13 02:20:05;;;;;;;9.43;2.72;;;;;;;14.69;81.23;101384.53;5062873;28;20029;-50
2023/07/13 02:22:30;;;;;;;6.90;2.25;;;;;;;14.70;81.35;101394.28;5061825;28;20028;-50
2023/07/13 02:24:56;;;;;;;8.75;2.58;;;;;;;14.67;81.65;101391.84;5065241;28;20029;-50
2023/07/13 02:27:21;;;;;;;12.95;2.88;;;;;;;14.65;81.62;101393.81;5061524;28;20032;-50
2023/07/13 02:29:47;;;;;;;8.73;2.67;;;;;;;14.63;81.51;101385.09;5058427;28;20052;-49
2023/07/13 02:32:12;;;;;;;6.88;2.40;;;;;;;14.61;81.79;101388.72;5063091;28;20080;-50
2023/07/13 02:34:37;;;;;;;5.93;2.40;;;;;;;14.65;81.25;101386.63;5060321;28;20111;-51
2023/07/13 02:37:03;;;;;;;6.63;2.55;;;;;;;14.63;82.30;101391.28;5061142;28;20107;-49
2023/07/13 02:39:28;;;;;;;7.15;2.28;;;;;;;14.59;82.67;101389.84;5063561;28;20535;-50
2023/07/13 02:41:54;;;;;;;7.03;2.70;;;;;;;14.57;82.76;101386.41;5063872;28;20025;-50
2023/07/13 02:44:19;;;;;;;6.38;2.40;;;;;;;14.55;83.16;101393.72;5062467;28;20449;-50
2023/07/13 02:46:45;;;;;;;8.98;2.47;;;;;;;14.50;82.75;101394.09;5066245;28;20496;-50
2023/07/13 02:49:10;;;;;;;8.80;2.60;;;;;;;14.53;82.97;101395.69;5059884;28;20036;-50
2023/07/13 02:51:35;;;;;;;8.65;2.47;;;;;;;14.51;83.30;101394.97;5060878;28;20473;-50
2023/07/13 02:54:02;;;;;;;7.80;2.17;;;;;;;14.53;83.40;101401.03;5057901;28;20037;-50
2023/07/13 02:56:30;;;;;;;9.18;2.80;;;;;;;14.46;83.91;101390.00;5061857;28;20542;-50
2023/07/13 02:58:55;;;;;;;8.25;2.15;;;;;;;14.48;83.81;101395.22;5063488;28;20024;-50
2023/07/13 03:01:21;;;;;;;8.68;2.90;;;;;;;14.47;84.03;101389.03;5058876;28;20328;-50
2023/07/13 03:03:48;;;;;;;9.20;2.88;;;;;;;14.44;83.82;101395.47;5059936;28;20028;-50
2023/07/13 03:06:14;;;;;;;8.38;2.63;;;;;;;14.46;84.45;101400.69;5060661;28;20520;-50
2023/07/13 03:08:40;;;;;;;8.27;2.65;;;;;;;14.41;84.71;101395.72;5058927;28;20016;-51
2023/07/13 03:11:15;;;;;;;7.55;2.70;;;;;;;14.39;84.88;101395.03;5061628;28;20039;-50
2023/07/13 03:13:41;;;;;;;8.40;2.88;;;;;;;14.36;84.82;101392.59;5059632;28;20028;-51
2023/07/13 03:16:08;;;;;;;11.18;2.72;;;;;;;14.32;84.99;101391.19;5062932;28;20397;-52
2023/07/13 03:18:34;;;;;;;9.52;2.70;;;;;;;14.30;85.47;101394.94;5055760;28;20039;-49
2023/07/13 03:20:59;;;;;;;9.77;2.90;;;;;;;14.26;86.87;101389.00;5062329;28;20033;-52
2023/07/13 03:23:25;;;;;;;9.80;3.00;;;;;;;14.28;86.56;101395.06;5060528;28;20393;-50
2023/07/13 03:25:50;;;;;;;8.43;2.88;;;;;;;14.27;85.70;101397.84;5061905;28;20083;-51
2023/07/13 03:28:16;;;;;;;10.57;3.28;;;;;;;14.25;87.02;101396.19;5060164;28;20020;-50
2023/07/13 03:30:42;;;;;;;7.18;2.97;;;;;;;14.24;86.36;101398.97;5057860;28;20090;-50
2023/07/13 03:33:08;;;;;;;8.40;2.90;;;;;;;14.22;87.29;101401.78;5057447;28;20051;-51
2023/07/13 03:35:34;;;;;;;15.02;3.13;;;;;;;14.25;86.93;101404.19;5059299;28;20036;-50
2023/07/13 03:38:00;;;;;;;8.98;3.10;;;;;;;14.22;86.61;101404.44;5058926;28;20032;-50
2023/07/13 03:40:27;;;;;;;10.80;2.92;;;;;;;14.23;87.73;101407.97;5056051;28;20120;-50
2023/07/13 03:42:52;;;;;;;13.10;3.13;;;;;;;14.22;87.59;101414.28;5062962;28;20025;-50
2023/07/13 03:45:18;;;;;;;12.73;3.92;;;;;;;14.21;87.99;101417.94;5057920;28;20036;-50
2023/07/13 03:47:44;;;;;;;10.65;3.10;;;;;;;14.18;88.00;101405.66;5061761;28;20025;-50
2023/07/13 03:50:10;;;;;;;9.52;3.15;;;;;;;14.20;87.38;101421.56;5057137;28;20031;-50
2023/07/13 03:52:35;;;;;;;9.25;3.03;;;;;;;14.19;88.22;101415.38;5059932;28;20055;-50
2023/07/13 03:55:01;;;;;;;10.18;3.30;;;;;;;14.21;88.22;101416.09;5059673;28;20401;-50
2023/07/13 03:57:26;;;;;;;9.20;3.45;;;;;;;14.21;88.36;101420.59;5060024;28;20020;-51
2023/07/13 03:59:52;;;;;;;10.00;2.97;;;;;;;14.17;89.16;101430.69;5059608;28;20462;-50
2023/07/13 04:02:17;;;;;;;13.40;3.63;;;;;;;14.19;89.40;101434.09;5063232;28;20032;-50
2023/07/13 04:04:43;;;;;;;7.35;3.53;;;;;;;14.18;89.52;101428.88;5060384;28;20462;-49
2023/07/13 04:07:09;;;;;;;12.77;3.90;;;;;;;14.13;90.02;101431.91;5059204;28;20036;-53
2023/07/13 04:09:35;;;;;;;11.05;3.30;;;;;;;14.18;89.94;101435.06;5056773;28;20021;-50
2023/07/13 04:12:01;;;;;;;11.27;3.30;;;;;;;14.18;89.50;101437.72;5059068;28;20104;-53
2023/07/13 04:14:27;;;;;;;10.43;3.30;;;;;;;14.18;90.46;101445.75;5060534;28;20116;-50
2023/07/13 04:16:54;;;;;;;8.55;3.35;;;;;;;14.18;90.20;101450.25;5060581;28;20060;-52
2023/07/13 04:19:20;;;;;;;8.65;3.95;;;;;;;14.20;90.79;101449.13;5057232;28;20578;-51
2023/07/13 04:21:45;;;;;;;10.15;3.80;;;;;;;14.25;90.23;101454.09;5058788;28;20531;-49
2023/07/13 04:24:11;;;;;;;12.82;4.00;;;;;;;14.27;91.01;101445.97;5056648;28;20032;-50
2023/07/13 04:26:38;;;;;;;10.25;3.67;;;;;;;14.32;91.13;101449.09;5059971;28;20028;-49
2023/07/13 04:29:04;;;;;;;17.08;4.28;;;;;;;14.32;91.35;101449.97;5058724;28;20028;-50
2023/07/13 04:31:30;;;;;;;14.43;4.93;;;;;;;14.35;92.17;101447.00;5058804;28;20037;-50
2023/07/13 04:33:55;;;;;;;18.65;5.32;;;;;;;14.39;92.38;101443.13;5057393;28;20067;-49
2023/07/13 04:36:21;;;;;;;15.10;5.25;;;;;;;14.46;92.47;101447.97;5060155;28;20115;-50
2023/07/13 04:38:46;;;;;;;15.95;5.63;;;;;;;14.48;92.56;101449.50;5060568;28;20382;-50
2023/07/13 04:41:13;;;;;;;21.80;6.38;;;;;;;14.53;92.41;101460.66;5060453;28;20028;-49
2023/07/13 04:43:38;;;;;;;19.05;6.85;;;;;;;14.59;92.76;101454.84;5058152;28;20068;-50
2023/07/13 04:46:09;;;;;;;16.95;6.70;;;;;;;14.61;93.37;101455.56;5059865;28;20469;-51
2023/07/13 04:48:35;;;;;;;18.20;7.22;;;;;;;14.68;93.22;101458.56;5058622;28;20402;-50
2023/07/13 04:51:01;;;;;;;20.40;7.00;;;;;;;14.74;93.89;101462.56;5057213;28;20056;-50
2023/07/13 04:53:27;;;;;;;23.58;8.20;;;;;;;14.78;94.41;101466.66;5057535;28;20055;-49
2023/07/13 04:55:53;;;;;;;20.58;8.32;;;;;;;14.83;93.88;101467.13;5059101;28;20031;-50
2023/07/13 04:58:18;;;;;;;21.40;8.40;;;;;;;14.89;93.97;101461.25;5058654;28;20104;-49
2023/07/13 05:00:44;;;;;;;26.25;8.77;;;;;;;14.96;94.28;101464.25;5055625;28;20433;-51
2023/07/13 05:03:09;;;;;;;22.00;8.77;;;;;;;15.01;94.21;101463.88;5056693;28;20032;-53
2023/07/13 05:05:35;;;;;;;24.50;8.82;;;;;;;15.05;94.51;101463.44;5061530;28;20424;-50
2023/07/13 05:08:00;;;;;;;23.27;9.10;;;;;;;15.11;94.01;101470.97;5062310;28;20037;-51
2023/07/13 05:10:26;;;;;;;26.75;9.18;;;;;;;15.20;94.95;101471.16;5064744;28;20058;-51
2023/07/13 05:12:51;;;;;;;26.23;9.70;;;;;;;15.24;94.79;101476.13;5061487;28;20033;-49
2023/07/13 05:15:20;;;;;;;23.58;10.23;;;;;;;15.30;94.26;101472.03;5064106;28;20081;-52
2023/07/13 05:17:46;;;;;;;;;;;;;;;15.38;91.23;101474.91;5065328;28;20028;-52
2023/07/13 05:20:11;;;;;;;22.75;9.38;;;;;;;15.40;94.02;101472.09;5063173;28;19917;-53
2023/07/13 05:22:37;;;;;;;25.23;9.73;;;;;;;15.44;93.92;101481.56;5062611;28;20032;-51
2023/07/13 05:25:07;;;;;;;24.40;9.80;;;;;;;15.49;94.62;101485.53;5063127;28;20025;-53
2023/07/13 05:27:34;;;;;;;22.58;9.75;;;;;;;15.53;94.09;101488.78;5062270;28;20032;-53
2023/07/13 05:30:00;;;;;;;23.52;10.07;;;;;;;15.58;93.96;101494.59;5064936;28;20063;-53
2023/07/13 05:32:25;;;;;;;24.33;9.30;;;;;;;15.59;93.74;101492.75;5066180;28;20070;-53
2023/07/13 05:34:50;;;;;;;25.23;9.38;;;;;;;15.67;93.72;101499.16;5062985;28;20100;-53
2023/07/13 05:37:16;;;;;;;25.10;10.10;;;;;;;15.68;94.10;101492.78;5060288;28;20107;-51
2023/07/13 05:39:41;;;;;;;22.15;10.02;;;;;;;15.71;93.22;101495.19;5064269;28;20021;-53
2023/07/13 05:42:07;;;;;;;24.60;10.60;;;;;;;15.74;93.04;101494.09;5060764;28;20082;-53
2023/07/13 05:44:32;;;;;;;24.50;9.90;;;;;;;15.82;93.25;101494.28;5063147;28;20074;-52
2023/07/13 05:46:57;;;;;;;24.55;10.48;;;;;;;15.86;93.48;101481.47;5064104;28;20025;-50
2023/07/13 05:49:23;;;;;;;24.63;10.88;;;;;;;15.94;93.10;101495.03;5062436;28;20032;-53
2023/07/13 05:51:48;;;;;;;24.70;11.32;;;;;;;15.99;93.08;101494.63;5065464;28;20021;-52
2023/07/13 05:54:14;;;;;;;23.10;10.77;;;;;;;16.08;92.86;101502.66;5060821;28;20030;-53
2023/07/13 05:56:39;;;;;;;22.92;11.20;;;;;;;16.15;92.20;101494.91;5062826;28;20028;-53
2023/07/13 05:59:04;;;;;;;24.90;11.15;;;;;;;16.18;92.41;101497.34;5063901;28;20032;-50
2023/07/13 06:01:30;;;;;;;21.10;10.98;;;;;;;16.25;91.74;101511.03;5061877;28;20025;-52
2023/07/13 06:03:56;;;;;;;27.05;10.65;;;;;;;16.33;91.78;101507.66;5061745;28;20055;-52
2023/07/13 06:06:21;;;;;;;28.05;11.48;;;;;;;16.39;91.43;101507.13;5064345;28;20101;-53
2023/07/13 06:08:47;;;;;;;24.08;11.10;;;;;;;16.54;91.47;101523.66;5053606;28;20036;-53
2023/07/13 06:11:14;;;;;;;23.98;11.63;;;;;;;16.62;91.11;101523.75;5063872;28;20102;-53
2023/07/13 06:13:39;;;;;;;24.60;10.35;;;;;;;16.70;90.24;101526.59;5060469;28;20478;-54
2023/07/13 06:16:05;;;;;;;25.30;10.75;;;;;;;16.78;89.99;101534.78;5058478;28;20036;-52
2023/07/13 06:18:33;;;;;;;23.23;10.85;;;;;;;16.81;89.16;101523.78;5056466;28;20136;-50
2023/07/13 06:20:58;;;;;;;22.75;10.68;;;;;;;16.86;88.72;101527.91;5057180;28;20056;-51
2023/07/13 06:23:24;;;;;;;25.20;10.70;;;;;;;16.90;88.30;101532.84;5066991;28;20075;-50
2023/07/13 06:25:50;;;;;;;26.25;11.15;;;;;;;16.95;88.75;101535.97;5059059;28;20057;-50
2023/07/13 06:28:15;;;;;;;18.60;9.85;;;;;;;16.99;88.21;101531.16;5055218;28;20044;-49
2023/07/13 06:30:41;;;;;;;24.02;10.55;;;;;;;16.97;87.24;101538.47;5059456;28;20031;-54
2023/07/13 06:33:06;;;;;;;24.52;10.20;;;;;;;17.00;87.47;101536.38;5054159;28;20137;-51
2023/07/13 06:35:31;;;;;;;26.35;10.20;;;;;;;17.04;87.64;101536.06;5054477;28;20017;-51
2023/07/13 06:37:57;;;;;;;22.33;9.55;;;;;;;17.07;87.64;101543.84;5062421;28;20040;-53
2023/07/13 06:40:22;;;;;;;19.80;9.85;;;;;;;17.14;86.94;101539.63;5059914;28;20112;-53
2023/07/13 06:42:47;;;;;;;26.40;10.35;;;;;;;17.14;87.44;101536.94;5062498;28;20371;-54
2023/07/13 06:45:13;;;;;;;24.38;9.55;;;;;;;17.22;86.82;101541.56;5059074;28;20480;-52
2023/07/13 06:47:38;;;;;;;20.20;9.48;;;;;;;17.25;86.69;101549.31;5056050;28;20024;-54
2023/07/13 06:50:04;;;;;;;19.60;9.40;;;;;;;17.30;86.48;101544.38;5052693;28;20049;-50
2023/07/13 06:52:29;;;;;;;25.27;9.43;;;;;;;17.37;86.70;101545.50;5059050;28;20126;-50
2023/07/13 06:54:55;;;;;;;24.75;10.48;;;;;;;17.43;86.24;101554.81;5053949;28;20106;-51
2023/07/13 06:57:20;;;;;;;22.10;9.85;;;;;;;17.45;85.38;101552.81;5056789;28;20040;-52
2023/07/13 06:59:45;;;;;;;24.45;8.68;;;;;;;17.50;84.88;101561.28;5056092;28;20127;-50
2023/07/13 07:02:11;;;;;;;21.42;8.55;;;;;;;17.53;84.10;101548.41;5062011;28;20036;-52
2023/07/13 07:04:37;;;;;;;21.88;8.10;;;;;;;17.58;85.10;101556.03;5056059;28;20486;-50
2023/07/13 07:07:02;;;;;;;24.88;8.88;;;;;;;17.68;86.11;101561.38;5059439;28;20029;-53
2023/07/13 07:09:29;;;;;;;18.33;8.35;;;;;;;17.77;85.68;101565.88;5059018;28;20043;-53
2023/07/13 07:11:55;;;;;;;20.45;8.50;;;;;;;17.79;83.77;101563.88;5056167;28;20068;-50
2023/07/13 07:14:21;;;;;;;17.38;8.25;;;;;;;17.83;83.11;101562.59;5058311;28;20060;-50
2023/07/13 07:16:46;;;;;;;18.40;8.98;;;;;;;17.85;84.18;101552.56;5058127;28;20374;-53
2023/07/13 07:19:11;;;;;;;19.30;7.82;;;;;;;17.98;83.88;101556.75;5059296;28;20048;-50
2023/07/13 07:21:37;;;;;;;23.88;8.63;;;;;;;18.09;84.52;101553.88;5057564;28;20021;-52
2023/07/13 07:24:04;;;;;;;20.42;8.90;;;;;;;18.25;83.56;101554.09;5058436;28;20029;-51
2023/07/13 07:26:30;;;;;;;19.33;8.20;;;;;;;18.40;82.29;101562.50;5061540;28;20017;-50
2023/07/13 07:28:55;;;;;;;20.45;8.02;;;;;;;18.66;81.40;101570.63;5060000;28;20398;-52
2023/07/13 07:31:20;;;;;;;20.58;7.45;;;;;;;18.87;79.79;101574.94;5062595;28;20523;-51
2023/07/13 07:33:46;;;;;;;14.95;7.32;;;;;;;19.07;78.82;101572.03;5057119;28;20446;-51
2023/07/13 07:36:11;;;;;;;17.15;7.80;;;;;;;19.24;78.65;101568.50;5058398;28;20119;-50
2023/07/13 07:38:37;;;;;;;18.20;6.90;;;;;;;19.40;77.76;101574.00;5062008;28;20079;-50
2023/07/13 07:41:05;;;;;;;16.48;6.90;;;;;;;19.42;76.72;101569.28;5060300;28;20108;-53
2023/07/13 07:43:31;;;;;;;17.67;6.43;;;;;;;19.56;76.79;101567.03;5061604;28;20038;-50
2023/07/13 07:45:57;;;;;;;15.18;6.38;;;;;;;19.84;76.05;101569.56;5056311;28;20405;-51
2023/07/13 07:48:22;;;;;;;15.20;5.93;;;;;;;20.04;74.37;101571.00;5057696;28;20025;-51
2023/07/13 07:50:48;;;;;;;16.73;6.18;;;;;;;20.20;73.08;101566.69;5057326;28;20100;-50
2023/07/13 07:53:13;;;;;;;14.95;6.20;;;;;;;20.48;72.15;101570.81;5058234;28;20087;-54
2023/07/13 07:55:39;;;;;;;16.40;5.68;;;;;;;20.58;71.15;101573.34;5056934;28;20025;-53
2023/07/13 07:58:05;;;;;;;16.63;5.35;;;;;;;20.63;69.61;101575.59;5058267;28;20363;-52
2023/07/13 08:00:31;;;;;;;13.07;5.25;;;;;;;20.65;70.36;101571.72;5060694;28;20036;-50
2023/07/13 08:02:57;;;;;;;11.95;4.93;;;;;;;20.62;68.59;101582.81;5060829;28;20536;-52
2023/07/13 08:05:23;;;;;;;12.95;4.60;;;;;;;20.62;68.92;101582.00;5061188;28;20115;-53
2023/07/13 08:07:48;;;;;;;10.10;4.53;;;;;;;20.69;69.51;101574.94;5062026;28;20554;-52
2023/07/13 08:10:14;;;;;;;16.92;5.45;;;;;;;20.93;69.30;101582.19;5061072;28;20029;-52
2023/07/13 08:12:40;;;;;;;12.80;4.13;;;;;;;21.26;67.74;101574.09;5053480;28;20431;-54
2023/07/13 08:15:09;;;;;;;12.95;4.20;;;;;;;21.67;67.08;101575.94;5061120;28;20025;-51
2023/07/13 08:17:34;;;;;;;13.13;4.28;;;;;;;21.86;65.27;101572.00;5060584;28;20439;-50
2023/07/13 08:20:00;;;;;;;14.38;4.45;;;;;;;21.92;64.09;101579.41;5060324;28;20035;-53
2023/07/13 08:22:25;;;;;;;10.65;4.20;;;;;;;22.05;65.21;101581.53;5061483;28;20669;-54
2023/07/13 08:24:55;;;;;;;14.85;4.07;;;;;;;22.12;64.19;101588.78;5056706;28;20107;-50
2023/07/13 08:27:25;;;;;;;11.70;4.35;;;;;;;22.05;63.03;101589.66;5053149;28;20029;-50
2023/07/13 08:29:50;;;;;;;13.07;4.43;;;;;;;22.14;61.02;101586.75;5057717;28;20108;-50
2023/07/13 08:32:17;;;;;;;10.07;4.25;;;;;;;22.13;60.52;101581.50;5060081;28;20143;-50
2023/07/13 08:34:43;;;;;;;11.07;4.10;;;;;;;22.00;60.20;101587.50;5058213;28;20581;-51
2023/07/13 08:37:09;;;;;;;11.52;3.92;;;;;;;22.01;60.59;101582.91;5059509;28;20127;-53
2023/07/13 08:39:35;;;;;;;13.50;3.78;;;;;;;22.42;59.81;101583.59;5059028;28;20025;-53
2023/07/13 08:42:11;;;;;;;12.50;3.95;;;;;;;22.75;61.00;101577.13;5055960;28;20378;-52
2023/07/13 08:44:54;;;;;;;10.60;4.15;;;;;;;22.83;60.30;101582.47;5056114;28;20484;-52
2023/07/13 08:47:23;;;;;;;9.85;4.18;;;;;;;22.83;59.50;101582.47;5054316;28;20033;-53
2023/07/13 08:49:49;;;;;;;;;;;;;;;22.95;61.56;101586.47;5057626;28;20029;-51
2023/07/13 08:52:32;;;;;;;13.57;4.18;;;;;;;22.60;59.84;101582.47;5056462;28;19958;-50
2023/07/13 08:55:06;;;;;;;10.98;3.92;;;;;;;22.76;60.17;101578.81;5059160;28;20039;-54
2023/07/13 08:57:34;;;;;;;11.90;3.80;;;;;;;22.81;57.75;101577.25;5066545;28;20024;-52
2023/07/13 08:59:59;;;;;;;11.03;3.83;;;;;;;23.02;58.24;101579.28;5056478;28;20084;-53
2023/07/13 09:02:28;;;;;;;8.82;3.50;;;;;;;23.09;57.05;101569.44;5062161;28;20377;-51
2023/07/13 09:04:54;;;;;;;;;;;;;;;23.45;59.11;101570.66;5062955;28;20359;-53
2023/07/13 09:07:29;;;;;;;9.35;3.67;;;;;;;23.22;56.65;101570.69;5059848;28;19943;-50
2023/07/13 09:10:19;;;;;;;10.35;3.55;;;;;;;23.39;57.84;101571.38;5056688;28;20056;-55
2023/07/13 09:13:12;;;;;;;10.98;3.70;;;;;;;23.33;57.27;101575.69;5056157;28;20036;-53
2023/07/13 09:15:40;;;;;;;11.63;3.55;;;;;;;23.08;56.73;101577.75;5053882;28;20118;-50
2023/07/13 09:18:18;;;;;;;10.32;3.30;;;;;;;22.98;56.51;101575.28;5058765;28;20047;-50
2023/07/13 09:21:02;;;;;;;8.73;3.10;;;;;;;23.06;57.62;101577.06;5057360;28;20025;-51
2023/07/13 09:23:29;;;;;;;11.75;3.72;;;;;;;22.98;55.22;101567.16;5059579;28;20397;-52
2023/07/13 09:26:03;;;;;;;10.07;3.42;;;;;;;22.95;55.46;101581.06;5055578;28;20064;-52
2023/07/13 09:28:36;;;;;;;10.52;3.33;;;;;;;22.89;55.98;101571.78;5051279;28;20072;-51
2023/07/13 09:31:26;;;;;;;39.53;6.28;;;;;;;23.02;56.20;101579.28;5057929;28;20099;-50
2023/07/13 09:33:51;;;;;;;10.63;3.70;;;;;;;22.98;55.30;101561.72;5057246;28;20474;-53
2023/07/13 09:36:17;;;;;;;7.65;3.45;;;;;;;23.26;55.23;101567.44;5052871;28;20158;-52
2023/07/13 09:38:44;;;;;;;7.35;3.30;;;;;;;23.23;54.07;101569.66;5057343;28;20039;-53
2023/07/13 09:41:18;;;;;;;17.52;3.97;;;;;;;23.37;54.29;101573.44;5056041;28;20021;-50
2023/07/13 09:44:09;;;;;;;11.45;3.45;;;;;;;23.45;54.83;101566.06;5061028;28;20031;-52
2023/07/13 09:46:35;;;;;;;12.43;3.40;;;;;;;23.56;52.68;101574.75;5056040;28;20541;-51
2023/07/13 09:49:01;;;;;;;10.27;3.30;;;;;;;23.50;52.71;101572.78;5055019;28;20490;-51
2023/07/13 09:51:26;;;;;;;8.25;3.20;;;;;;;23.51;54.14;101578.03;5055779;28;20028;-51
2023/07/13 09:53:52;;;;;;;9.50;3.25;;;;;;;23.52;52.51;101579.72;5063061;28;20024;-50
2023/07/13 09:56:23;;;;;;;9.55;3.10;;;;;;;23.52;53.59;101573.47;5064464;28;20512;-51
2023/07/13 09:58:48;;;;;;;10.27;3.03;;;;;;;23.55;53.60;101573.94;5061173;28;20097;-52
2023/07/13 10:01:15;;;;;;;8.18;2.85;;;;;;;23.53;52.83;101575.13;5062843;28;20060;-51
2023/07/13 10:03:53;;;;;;;10.07;3.08;;;;;;;23.71;52.57;101575.59;5062209;28;20436;-51
2023/07/13 10:06:26;;;;;;;8.75;2.72;;;;;;;23.61;52.16;101577.75;5062437;28;20036;-53
2023/07/13 10:08:52;;;;;;;6.55;2.58;;;;;;;23.52;50.56;101578.88;5064636;28;20107;-52
2023/07/13 10:11:20;;;;;;;14.82;2.70;;;;;;;23.59;50.97;101575.22;5059233;28;20487;-53
2023/07/13 10:13:51;;;;;;;6.65;2.55;;;;;;;24.10;51.20;101576.34;5062197;28;20025;-51
2023/07/13 10:16:18;;;;;;;9.50;2.75;;;;;;;24.12;50.24;101566.19;5054662;28;20044;-52
2023/07/13 10:18:48;;;;;;;6.25;2.38;;;;;;;24.08;49.32;101581.13;5060047;28;20154;-51
2023/07/13 10:21:20;;;;;;;5.55;2.17;;;;;;;24.03;48.95;101584.41;5061485;28;20473;-51
2023/07/13 10:23:55;;;;;;;6.72;2.30;;;;;;;24.06;49.20;101577.78;5061796;28;20092;-50
2023/07/13 10:26:32;;;;;;;5.95;2.08;;;;;;;24.06;49.15;101573.19;5067203;28;20397;-50
2023/07/13 10:29:04;;;;;;;12.50;2.90;;;;;;;24.10;49.14;101571.78;5056886;28;20065;-50
2023/07/13 10:31:30;;;;;;;6.75;2.50;;;;;;;24.28;49.36;101573.25;5058697;28;20068;-51
2023/07/13 10:33:56;;;;;;;7.78;2.30;;;;;;;24.34;51.25;101580.63;5055662;28;20434;-51
2023/07/13 10:36:43;;;;;;;8.82;2.50;;;;;;;24.50;51.10;101579.56;5048392;28;20101;-51
2023/07/13 10:39:16;;;;;;;10.25;3.03;;;;;;;24.27;52.13;101585.97;5044441;28;20021;-54
2023/07/13 10:41:44;;;;;;;7.70;2.50;;;;;;;24.02;50.05;101594.44;5060146;28;20032;-51
2023/07/13 10:44:26;;;;;;;6.63;2.63;;;;;;;23.72;49.73;101604.41;5055410;28;20473;-51
2023/07/13 10:46:56;;;;;;;8.18;2.83;;;;;;;23.27;55.69;101611.66;5052962;28;20488;-51
2023/07/13 10:49:23;;;;;;;8.10;3.60;;;;;;;23.03;58.52;101608.09;5054149;28;20036;-51
2023/07/13 10:51:49;;;;;;;6.70;3.72;;;;;;;22.80;61.09;101610.78;5056212;28;20064;-53
2023/07/13 10:54:19;;;;;;;8.43;3.53;;;;;;;22.82;61.64;101611.44;5060176;28;20037;-54
2023/07/13 10:56:46;;;;;;;8.85;3.90;;;;;;;22.81;62.37;101614.34;5060049;28;20641;-53
2023/07/13 10:59:15;;;;;;;9.48;3.85;;;;;;;22.88;59.56;101612.56;5062863;28;20490;-51
2023/07/13 11:01:49;;;;;;;7.05;3.25;;;;;;;23.05;61.42;101610.63;5061515;28;20047;-51
2023/07/13 11:04:15;;;;;;;7.88;3.40;;;;;;;23.38;59.12;101611.22;5057273;28;20565;-51
2023/07/13 11:06:44;;;;;;;8.52;3.70;;;;;;;23.65;58.45;101608.91;5056252;28;20037;-51
2023/07/13 11:09:36;;;;;;;10.07;3.63;;;;;;;24.01;58.71;101600.03;5060880;28;20667;-51
2023/07/13 11:12:26;;;;;;;9.00;3.45;;;;;;;24.13;57.54;101594.97;5066885;28;20413;-53
2023/07/13 11:14:54;;;;;;;11.43;3.45;;;;;;;24.49;55.95;101595.00;5057702;28;20322;-52
2023/07/13 11:17:32;;;;;;;8.68;3.95;;;;;;;24.67;54.85;101583.75;5061483;28;20096;-52
2023/07/13 11:20:23;;;;;;;7.55;3.88;;;;;;;24.91;53.77;101592.53;5059484;28;20029;-52
2023/07/13 11:23:07;;;;;;;8.52;3.92;;;;;;;25.17;53.68;101593.84;5060231;28;20095;-52